createdAt,value
2022-12-23T00:00:11.867Z,6.1
2022-12-23T00:03:13.503Z,6.1
2022-12-23T00:06:11.788Z,6.1
2022-12-23T00:09:11.906Z,6.1
2022-12-23T00:12:11.868Z,6.1
2022-12-23T00:15:11.865Z,6.1
2022-12-23T00:18:11.895Z,6.1
2022-12-23T00:21:20.188Z,6.1
2022-12-23T00:24:11.849Z,6.1
2022-12-23T00:27:11.892Z,6.1
2022-12-23T00:30:11.920Z,6.1
2022-12-23T00:33:11.746Z,6.1
2022-12-23T00:36:12.125Z,6.1
2022-12-23T00:39:11.823Z,6.1
2022-12-23T00:42:11.890Z,6.1
2022-12-23T00:45:11.806Z,6.1
2022-12-23T00:48:11.857Z,6.1
2022-12-23T00:51:11.786Z,6.1
2022-12-23T00:54:11.889Z,6.1
2022-12-23T00:57:11.828Z,6.1
2022-12-23T01:00:11.832Z,6.1
2022-12-23T01:03:12.785Z,6.1
2022-12-23T01:06:11.938Z,6.1
2022-12-23T01:09:11.874Z,6.1
2022-12-23T01:12:11.823Z,6.1
2022-12-23T01:15:11.819Z,6.1
2022-12-23T01:18:11.784Z,6.1
2022-12-23T01:21:11.850Z,6.1
2022-12-23T01:24:11.803Z,6.1
2022-12-23T01:27:11.833Z,6.2
2022-12-23T01:30:11.813Z,6.4
2022-12-23T01:33:11.871Z,6.6
2022-12-23T01:36:11.890Z,7
2022-12-23T01:39:11.896Z,7.2
2022-12-23T01:42:11.831Z,7.5
2022-12-23T01:45:11.987Z,7.6
2022-12-23T01:48:11.812Z,7.7
2022-12-23T01:51:11.853Z,7.9
2022-12-23T01:54:11.833Z,8
2022-12-23T01:57:11.818Z,8
2022-12-23T02:00:12.025Z,8.1
2022-12-23T02:03:12.915Z,8.3
2022-12-23T02:06:11.833Z,8.3
2022-12-23T02:09:11.833Z,8.4
2022-12-23T02:12:12.049Z,8.4
2022-12-23T02:15:11.917Z,8.4
2022-12-23T02:18:11.903Z,8.5
2022-12-23T02:21:11.843Z,8.5
2022-12-23T02:24:11.906Z,8.5
2022-12-23T02:27:11.824Z,8.5
2022-12-23T02:30:11.849Z,8.6
2022-12-23T02:33:11.776Z,8.6
2022-12-23T02:36:11.874Z,8.6
2022-12-23T02:39:11.841Z,8.6
2022-12-23T02:42:11.827Z,8.6
2022-12-23T02:45:11.824Z,8.6
2022-12-23T02:48:11.862Z,8.8
2022-12-23T02:51:11.889Z,8.6
2022-12-23T02:54:11.816Z,8.8
2022-12-23T02:57:11.857Z,8.8
2022-12-23T03:00:11.855Z,8.8
2022-12-23T03:03:13.193Z,8.8
2022-12-23T03:06:11.819Z,8.8
2022-12-23T03:09:11.831Z,8.8
2022-12-23T03:12:11.965Z,8.8
2022-12-23T03:15:11.926Z,8.8
2022-12-23T03:18:12.281Z,8.8
2022-12-23T03:21:11.921Z,8.9
2022-12-23T03:24:11.799Z,8.8
2022-12-23T03:27:11.888Z,8.9
2022-12-23T03:30:11.877Z,8.9
2022-12-23T03:33:11.784Z,8.9
2022-12-23T03:36:11.806Z,8.9
2022-12-23T03:39:11.839Z,8.9
2022-12-23T03:42:11.810Z,8.9
2022-12-23T03:45:52.321Z,8.9
2022-12-23T03:48:11.816Z,8.9
2022-12-23T03:51:11.850Z,8.8
2022-12-23T03:54:11.850Z,8.9
2022-12-23T03:57:11.883Z,8.8
2022-12-23T04:00:11.871Z,8.9
2022-12-23T04:03:12.297Z,8.9
2022-12-23T04:06:11.900Z,8.9
2022-12-23T04:09:14.373Z,8.9
2022-12-23T04:12:11.807Z,8.9
2022-12-23T04:15:20.083Z,8.9
2022-12-23T04:18:11.850Z,8.9
2022-12-23T04:21:11.830Z,8.9
2022-12-23T04:24:11.866Z,8.9
2022-12-23T04:27:11.804Z,8.9
2022-12-23T04:30:11.882Z,9
2022-12-23T04:33:11.865Z,9
2022-12-23T04:36:11.875Z,9
2022-12-23T04:39:11.878Z,9
2022-12-23T04:42:11.780Z,9
2022-12-23T04:45:12.016Z,9
2022-12-23T04:48:11.886Z,9
2022-12-23T04:51:11.937Z,9
2022-12-23T04:54:11.852Z,9
2022-12-23T04:57:11.900Z,9
2022-12-23T05:00:11.997Z,9
2022-12-23T05:03:12.959Z,9
2022-12-23T05:06:11.807Z,9
2022-12-23T05:09:11.861Z,9
2022-12-23T05:12:11.897Z,9
2022-12-23T05:15:11.905Z,9
2022-12-23T05:18:11.818Z,9
2022-12-23T05:21:11.828Z,8.9
2022-12-23T05:24:12.020Z,8.9
2022-12-23T05:27:12.066Z,8.9
2022-12-23T05:30:11.867Z,8.9
2022-12-23T05:33:12.542Z,9
2022-12-23T05:36:11.803Z,8.9
2022-12-23T05:39:11.853Z,9
2022-12-23T05:42:11.871Z,9
2022-12-23T05:45:11.925Z,9
2022-12-23T05:48:11.840Z,9
2022-12-23T05:51:11.806Z,9
2022-12-23T05:54:11.902Z,8.9
2022-12-23T05:57:11.808Z,9
2022-12-23T06:00:11.885Z,9
2022-12-23T06:03:13.482Z,9
2022-12-23T06:06:11.972Z,9
2022-12-23T06:09:11.879Z,9
2022-12-23T06:12:11.843Z,9
2022-12-23T06:15:11.835Z,9
2022-12-23T06:18:11.913Z,9
2022-12-23T06:21:11.826Z,9
2022-12-23T06:24:11.787Z,9
2022-12-23T06:27:11.820Z,9
2022-12-23T06:30:12.003Z,8.9
2022-12-23T06:33:11.853Z,8.9
2022-12-23T06:36:11.795Z,8.9
2022-12-23T06:39:11.784Z,8.9
2022-12-23T06:42:11.810Z,8.8
2022-12-23T06:45:11.902Z,8.8
2022-12-23T06:48:11.865Z,8.8
2022-12-23T06:51:11.857Z,8.8
2022-12-23T06:54:11.901Z,8.6
2022-12-23T06:57:11.868Z,8.6
2022-12-23T07:00:11.946Z,8.6
2022-12-23T07:03:13.171Z,8.5
2022-12-23T07:06:11.804Z,8.5
2022-12-23T07:09:11.829Z,8.5
2022-12-23T07:12:11.967Z,8.5
2022-12-23T07:15:12.051Z,8.5
2022-12-23T07:18:11.913Z,8.5
2022-12-23T07:21:30.910Z,8.5
2022-12-23T07:24:11.820Z,8.5
2022-12-23T07:27:11.862Z,8.5
2022-12-23T07:30:11.997Z,8.5
2022-12-23T07:33:11.842Z,8.4
2022-12-23T07:36:11.902Z,8.4
2022-12-23T07:39:11.903Z,8.4
2022-12-23T07:42:56.641Z,8.4
2022-12-23T07:45:11.904Z,8.4
2022-12-23T07:48:11.893Z,8.3
2022-12-23T07:51:11.937Z,8.3
2022-12-23T07:54:11.907Z,8.3
2022-12-23T07:57:12.065Z,8.3
2022-12-23T08:03:12.913Z,8.3
2022-12-23T08:06:11.951Z,8.3
2022-12-23T08:09:11.926Z,8.3
2022-12-23T08:12:11.945Z,8.3
2022-12-23T08:15:11.904Z,8.3
2022-12-23T08:18:11.941Z,8.3
2022-12-23T08:21:11.848Z,8.4
2022-12-23T08:24:11.797Z,8.4
2022-12-23T08:27:11.952Z,8.5
2022-12-23T08:30:11.983Z,8.5
2022-12-23T08:33:11.835Z,8.6
2022-12-23T08:36:12.345Z,8.8
2022-12-23T08:39:11.857Z,8.8
2022-12-23T08:42:11.972Z,8.8
2022-12-23T08:45:11.903Z,8.8
2022-12-23T08:48:11.891Z,8.8
2022-12-23T08:51:11.880Z,8.8
2022-12-23T08:54:12.970Z,8.9
2022-12-23T08:57:11.903Z,9
2022-12-23T09:00:12.141Z,9.1
2022-12-23T09:03:13.105Z,9.1
2022-12-23T09:06:11.888Z,9.1
2022-12-23T09:09:11.914Z,9.3
2022-12-23T09:12:12.063Z,9.4
2022-12-23T09:15:11.892Z,9.5
2022-12-23T09:18:11.918Z,9.6
2022-12-23T09:21:11.879Z,9.5
2022-12-23T09:24:12.020Z,9.5
2022-12-23T09:27:11.913Z,9.9
2022-12-23T09:30:11.985Z,10.3
2022-12-23T09:33:11.937Z,10.5
2022-12-23T09:36:12.025Z,10.5
2022-12-23T09:39:11.905Z,10.6
2022-12-23T09:42:11.875Z,10.5
2022-12-23T09:45:11.876Z,10.4
2022-12-23T09:48:11.903Z,10.3
2022-12-23T09:51:12.066Z,9.9
2022-12-23T09:54:19.658Z,9.6
2022-12-23T09:57:11.931Z,9.4
2022-12-23T10:00:11.859Z,9.4
2022-12-23T10:03:13.755Z,9.4
2022-12-23T10:06:11.905Z,9.4
2022-12-23T10:09:11.898Z,9.5
2022-12-23T10:12:11.862Z,9.5
2022-12-23T10:15:11.868Z,9.8
2022-12-23T10:18:11.837Z,10.1
2022-12-23T10:21:11.904Z,10.4
2022-12-23T10:24:12.019Z,10.9
2022-12-23T10:27:11.902Z,11.4
2022-12-23T10:33:11.847Z,11.6
2022-12-23T10:36:12.612Z,11.8
2022-12-23T10:39:11.854Z,12
2022-12-23T10:42:12.010Z,12.2
2022-12-23T10:45:12.026Z,12.5
2022-12-23T10:48:20.332Z,12.6
2022-12-23T10:51:11.858Z,12.4
2022-12-23T10:54:11.936Z,12
2022-12-23T10:57:11.948Z,11.8
2022-12-23T11:00:11.981Z,11.5
2022-12-23T11:03:12.864Z,11.3
2022-12-23T11:06:12.077Z,11.1
2022-12-23T11:09:11.908Z,10.9
2022-12-23T11:12:11.919Z,10.9
2022-12-23T11:15:11.944Z,10.8
2022-12-23T11:18:11.944Z,10.5
2022-12-23T11:21:11.911Z,10.4
2022-12-23T11:24:11.842Z,10.3
2022-12-23T11:27:11.907Z,10
2022-12-23T11:30:11.899Z,9.9
2022-12-23T11:33:11.852Z,9.8
2022-12-23T11:36:11.847Z,9.6
2022-12-23T11:39:11.833Z,9.6
2022-12-23T11:42:11.841Z,9.6
2022-12-23T11:45:11.942Z,9.6
2022-12-23T11:48:11.872Z,9.6
2022-12-23T11:51:11.921Z,9.6
2022-12-23T11:54:12.209Z,9.6
2022-12-23T11:57:12.495Z,9.6
2022-12-23T12:00:12.095Z,9.6
2022-12-23T12:06:11.935Z,9.5
2022-12-23T12:09:11.896Z,9.5
2022-12-23T12:12:11.803Z,9.5
2022-12-23T12:15:11.902Z,9.4
2022-12-23T12:18:11.904Z,9.4
2022-12-23T12:21:11.911Z,9.3
2022-12-23T12:24:30.314Z,9.3
2022-12-23T12:27:11.931Z,9.3
2022-12-23T12:30:20.061Z,9.1
2022-12-23T12:33:12.208Z,9.1
2022-12-23T12:36:17.236Z,9.1
2022-12-23T12:39:11.895Z,9.1
2022-12-23T12:42:17.243Z,9.1
2022-12-23T12:45:11.944Z,9.3
2022-12-23T12:48:28.864Z,9.3
2022-12-23T12:51:11.879Z,9.3
2022-12-23T12:54:17.482Z,9.3
2022-12-23T12:57:11.893Z,9.3
2022-12-23T13:00:18.247Z,9.3
2022-12-23T13:03:12.395Z,9.3
2022-12-23T13:06:12.044Z,9.3
2022-12-23T13:09:11.948Z,9.3
2022-12-23T13:12:11.941Z,9.4
2022-12-23T13:15:11.915Z,9.4
2022-12-23T13:18:15.195Z,9.4
2022-12-23T13:21:11.936Z,9.4
2022-12-23T13:24:15.588Z,9.4
2022-12-23T13:27:11.897Z,9.3
2022-12-23T13:30:12.252Z,9.3
2022-12-23T13:33:12.039Z,9.3
2022-12-23T13:36:18.061Z,9.1
2022-12-23T13:39:11.923Z,9
2022-12-23T13:42:17.453Z,8.9
2022-12-23T13:45:11.882Z,8.9
2022-12-23T13:48:16.691Z,8.9
2022-12-23T13:51:11.962Z,8.8
2022-12-23T13:54:16.512Z,8.6
2022-12-23T13:57:11.845Z,8.6
2022-12-23T14:00:17.625Z,8.6
2022-12-23T14:03:12.791Z,8.6
2022-12-23T14:06:11.928Z,8.6
2022-12-23T14:09:11.894Z,8.6
2022-12-23T14:12:15.886Z,8.6
2022-12-23T14:15:11.890Z,8.6
2022-12-23T14:18:16.135Z,8.5
2022-12-23T14:21:11.831Z,8.5
2022-12-23T14:24:15.903Z,8.4
2022-12-23T14:27:11.859Z,8.4
2022-12-23T14:30:18.001Z,8.4
2022-12-23T14:33:11.886Z,8.3
2022-12-23T14:36:12.287Z,8.3
2022-12-23T14:39:11.834Z,8.1
2022-12-23T14:42:23.743Z,8.1
2022-12-23T14:45:11.948Z,8
2022-12-23T14:48:11.842Z,8
2022-12-23T14:51:11.930Z,8
2022-12-23T14:54:11.912Z,7.9
2022-12-23T14:57:12.079Z,7.9
2022-12-23T15:00:12.208Z,7.7
2022-12-23T15:03:12.601Z,7.7
2022-12-23T15:06:12.009Z,7.7
2022-12-23T15:09:12.013Z,7.7
2022-12-23T15:12:11.839Z,7.7
2022-12-23T15:15:11.933Z,7.7
2022-12-23T15:18:12.039Z,7.7
2022-12-23T15:21:11.848Z,7.7
2022-12-23T15:24:11.836Z,7.7
2022-12-23T15:27:39.993Z,7.7
2022-12-23T15:30:12.146Z,7.7
2022-12-23T15:36:12.213Z,7.6
2022-12-23T15:39:11.900Z,7.6
2022-12-23T15:42:11.798Z,7.6
2022-12-23T15:45:11.839Z,7.6
2022-12-23T15:48:11.987Z,7.6
2022-12-23T15:51:11.885Z,7.6
2022-12-23T15:54:11.845Z,7.6
2022-12-23T15:57:11.861Z,7.5
2022-12-23T16:00:12.235Z,7.5
2022-12-23T16:03:25.244Z,7.5
2022-12-23T16:06:11.891Z,7.5
2022-12-23T16:09:11.829Z,7.5
2022-12-23T16:12:11.978Z,7.5
2022-12-23T16:15:11.946Z,7.4
2022-12-23T16:18:11.840Z,7.5
2022-12-23T16:21:11.868Z,7.5
2022-12-23T16:24:11.945Z,7.5
2022-12-23T16:27:11.826Z,7.4
2022-12-23T16:30:11.977Z,7.4
2022-12-23T16:33:11.826Z,7.4
2022-12-23T16:36:12.199Z,7.4
2022-12-23T16:39:11.823Z,7.4
2022-12-23T16:42:11.799Z,7.5
2022-12-23T16:45:11.886Z,7.5
2022-12-23T16:48:12.172Z,7.5
2022-12-23T16:51:11.891Z,7.5
2022-12-23T16:54:11.923Z,7.5
2022-12-23T16:57:11.960Z,7.4
2022-12-23T17:00:11.997Z,7.5
2022-12-23T17:03:12.105Z,7.5
2022-12-23T17:06:11.870Z,7.4
2022-12-23T17:09:11.905Z,7.4
2022-12-23T17:12:11.836Z,7.4
2022-12-23T17:15:11.794Z,7.4
2022-12-23T17:18:11.892Z,7.4
2022-12-23T17:21:11.886Z,7.4
2022-12-23T17:24:11.875Z,7.5
2022-12-23T17:27:11.907Z,7.5
2022-12-23T17:30:11.876Z,7.5
2022-12-23T17:33:11.889Z,7.5
2022-12-23T17:36:12.483Z,7.5
2022-12-23T17:39:11.909Z,7.5
2022-12-23T17:42:11.877Z,7.5
2022-12-23T17:45:11.887Z,7.5
2022-12-23T17:48:21.431Z,7.5
2022-12-23T17:51:11.858Z,7.5
2022-12-23T17:54:11.930Z,7.5
2022-12-23T17:57:11.834Z,7.5
2022-12-23T18:00:11.986Z,7.5
2022-12-23T18:03:11.940Z,7.5
2022-12-23T18:06:13.685Z,7.4
2022-12-23T18:09:11.913Z,7.4
2022-12-23T18:12:11.845Z,7.5
2022-12-23T18:15:11.931Z,7.5
2022-12-23T18:18:11.838Z,7.5
2022-12-23T18:21:11.879Z,7.5
2022-12-23T18:24:11.865Z,7.5
2022-12-23T18:27:11.807Z,7.5
2022-12-23T18:30:11.938Z,7.5
2022-12-23T18:33:11.824Z,7.5
2022-12-23T18:36:12.567Z,7.5
2022-12-23T18:39:11.967Z,7.6
2022-12-23T18:42:11.869Z,7.6
2022-12-23T18:45:11.854Z,7.6
2022-12-23T18:48:11.846Z,7.6
2022-12-23T18:51:11.952Z,7.6
2022-12-23T18:54:11.814Z,7.6
2022-12-23T18:57:11.926Z,7.6
2022-12-23T19:00:12.169Z,7.6
2022-12-23T19:03:12.611Z,7.6
2022-12-23T19:06:11.821Z,7.5
2022-12-23T19:09:12.051Z,7.5
2022-12-23T19:12:11.870Z,7.6
2022-12-23T19:15:11.911Z,7.6
2022-12-23T19:18:11.848Z,7.6
2022-12-23T19:21:11.802Z,7.5
2022-12-23T19:24:11.854Z,7.5
2022-12-23T19:27:11.865Z,7.6
2022-12-23T19:30:12.013Z,7.5
2022-12-23T19:33:11.838Z,7.5
2022-12-23T19:36:12.288Z,7.5
2022-12-23T19:39:11.802Z,7.5
2022-12-23T19:42:11.838Z,7.5
2022-12-23T19:45:11.875Z,7.5
2022-12-23T19:48:11.945Z,7.5
2022-12-23T19:51:11.896Z,7.5
2022-12-23T19:54:11.904Z,7.5
2022-12-23T19:57:11.806Z,7.4
2022-12-23T20:00:12.162Z,7.5
2022-12-23T20:03:12.440Z,7.5
2022-12-23T20:06:11.879Z,7.5
2022-12-23T20:09:12.579Z,7.5
2022-12-23T20:12:11.804Z,7.5
2022-12-23T20:15:12.038Z,7.5
2022-12-23T20:18:11.828Z,7.6
2022-12-23T20:21:11.865Z,7.6
2022-12-23T20:24:11.866Z,7.6
2022-12-23T20:27:30.652Z,7.7
2022-12-23T20:30:11.875Z,7.7
2022-12-23T20:33:11.853Z,7.7
2022-12-23T20:36:12.327Z,7.7
2022-12-23T20:39:11.940Z,7.7
2022-12-23T20:42:11.858Z,7.7
2022-12-23T20:45:12.041Z,7.7
2022-12-23T20:48:11.880Z,7.7
2022-12-23T20:51:11.834Z,7.7
2022-12-23T20:54:11.777Z,7.7
2022-12-23T20:57:11.793Z,7.7
2022-12-23T21:00:12.128Z,7.7
2022-12-23T21:03:21.804Z,7.7
2022-12-23T21:06:11.740Z,7.7
2022-12-23T21:09:11.859Z,7.7
2022-12-23T21:12:11.886Z,7.7
2022-12-23T21:15:11.908Z,7.7
2022-12-23T21:18:11.855Z,7.7
2022-12-23T21:21:11.820Z,7.7
2022-12-23T21:24:11.948Z,7.7
2022-12-23T21:27:11.838Z,7.7
2022-12-23T21:30:12.010Z,7.7
2022-12-23T21:33:11.877Z,7.7
2022-12-23T21:36:19.901Z,7.7
2022-12-23T21:39:11.841Z,7.6
2022-12-23T21:42:11.849Z,7.7
2022-12-23T21:45:12.142Z,7.6
2022-12-23T21:48:11.851Z,7.7
2022-12-23T21:51:11.837Z,7.7
2022-12-23T21:54:12.099Z,7.7
2022-12-23T21:57:11.873Z,7.7
2022-12-23T22:00:11.989Z,7.7
2022-12-23T22:03:12.644Z,7.7
2022-12-23T22:06:20.968Z,7.7
2022-12-23T22:09:11.848Z,7.7
2022-12-23T22:12:11.800Z,7.7
2022-12-23T22:15:20.974Z,7.7
2022-12-23T22:18:11.819Z,7.7
2022-12-23T22:21:11.949Z,7.7
2022-12-23T22:24:11.880Z,7.7
2022-12-23T22:27:11.872Z,7.7
2022-12-23T22:30:11.894Z,7.7
2022-12-23T22:33:11.853Z,7.6
2022-12-23T22:36:12.154Z,7.6
2022-12-23T22:39:23.129Z,7.6
2022-12-23T22:42:11.862Z,7.6
2022-12-23T22:45:12.391Z,7.6
2022-12-23T22:48:12.447Z,7.6
2022-12-23T22:51:11.893Z,7.6
2022-12-23T22:54:11.894Z,7.5
2022-12-23T22:57:11.768Z,7.6
2022-12-23T23:00:23.367Z,7.6
2022-12-23T23:03:11.804Z,7.6
2022-12-23T23:06:12.446Z,7.6
2022-12-23T23:09:11.804Z,7.5
2022-12-23T23:12:11.851Z,7.5
2022-12-23T23:15:11.857Z,7.5
2022-12-23T23:18:11.775Z,7.5
2022-12-23T23:21:11.801Z,7.5
2022-12-23T23:24:11.888Z,7.5
2022-12-23T23:27:11.819Z,7.5
2022-12-23T23:30:11.923Z,7.4
2022-12-23T23:33:11.942Z,7.4
2022-12-23T23:36:12.264Z,7.4
2022-12-23T23:39:11.870Z,7.4
2022-12-23T23:42:11.924Z,7.4
2022-12-23T23:45:11.915Z,7.4
2022-12-23T23:48:11.807Z,7.2
2022-12-23T23:51:11.816Z,7.2
2022-12-23T23:54:11.855Z,7.2
2022-12-23T23:57:11.890Z,7.2
